Cooper, Iowa
Current Conditions -  °F | °C
As of 8:15 PM on Friday 19 Dec 2014 (Local Time) from KPRO Reporting Station
Haze Haze  
Wind Chill: 25°   Ceiling: 1000
Heat Index: 32°   Visibility: 5mi
Dew Point: 31°   Wind: 8mph
Humidity: 96%   Direction: 150°SSE
Pressure: 30.18"   Gusts: NA
Location:  41.92°N, 94.35°W
Report Text: KPRO 200215Z AUTO 15007KT 5SM BR OVC010 00/00 A3018 RMK AO2 T00001005
Loading
Personal Weather Stations






























Interactive Weather Map New forecast layout! Learn more

10-Day Weather Forecast

Advertisements
Track Severe Weather on mobile